Ana Sayfa
METAR-TAF:

METAR-TAF

Havaalanları :

Leesburg, Virginia, Amerika Birleşik Devletleri

Enlem: 39-05N, Boylam: 077-34W, yükseklik: 119 m

Güncel hava durumu gözlemi

Rapor saat 10:15 UTC de 19 dakika önce yapıldı.
Rüzgar güney/güneybatıdan 6 kt
Sıcaklık -1°C
Nem 64%
Basınç 1014 hPa
Görüş mesafesi: 16.1 km
5500 ft yükseklikte parçalı bulutlu
7000 ft yükseklikte çok bulutlu

METAR: KJYO 281015Z AUTO 20006KT 10SM SCT055 OVC070 M01/M07 A2995 RMK AO2

Saat: 05:34 (10:34 UTC)


TAF: eksik

4.000'den fazla havaalanı için hava durumu gözlemleri ve tahminleri (METAR ve TAF raporları).

Kullanılabilir istasyonlar harita üzerinde sarı ve kırmızı noktalarla gösterilir.

İstasyonun adını görmek için fareyi noktanın üzerinde gezdirin.

Sonrasında hava gözlem ve tahminlerini görmek için tıklayın.

Haritayı değiştirmek için: yaklaştırmak için siyah artı işaretli yeşil düğmeye ve uzaklaştırmak için de eksi işaretli düğmeye hızla tıklayın; bitişik haritalar için yeşil okları kullanın.


METAR-TAF: